Time;durP1;ratioP1;P1;durP2;ratioP2;P2;SDS_P1;SDS_P2;PMS_P1;PMS_P2;Temp;Humidity;BMP_temperature;BMP_pressure;BME280_temperature;BME280_humidity;BME280_pressure;Samples;Min_cycle;Max_cycle;Signal;HPM_P1;HPM_P2
2023/01/26 00:00:06;;;;;;;;;;;20.20;41.80;;;;;;6018936;29;19931;-55
2023/01/26 00:03:08;;;;;;;;;;;20.00;41.70;;;;;;6036123;29;19955;-54
2023/01/26 00:06:10;;;;;;;;;;;20.00;41.90;;;;;;6035390;29;19974;-55
2023/01/26 00:09:13;;;;;;;;;;;20.30;41.90;;;;;;6035731;29;19931;-55
2023/01/26 00:12:14;;;;;;;;;;;20.20;41.90;;;;;;6035429;29;19924;-53
2023/01/26 00:15:16;;;;;;;;;;;20.30;42.10;;;;;;6035657;29;19935;-55
2023/01/26 00:18:18;;;;;;;;;;;20.40;42.10;;;;;;6035681;29;19931;-54
2023/01/26 00:21:20;;;;;;;;;;;20.60;42.30;;;;;;6035536;29;20284;-53
2023/01/26 00:24:22;;;;;;;;;;;20.00;42.00;;;;;;6035271;29;19924;-55
2023/01/26 00:27:23;;;;;;;;;;;20.00;42.00;;;;;;6035766;29;20010;-56
2023/01/26 00:30:24;;;;;;;;;;;20.40;42.40;;;;;;6034816;29;19994;-54
2023/01/26 00:33:27;;;;;;;;;;;20.40;42.30;;;;;;6035113;29;19928;-54
2023/01/26 00:36:29;;;;;;;;;;;20.00;42.70;;;;;;6035355;29;19992;-53
2023/01/26 00:39:30;;;;;;;;;;;20.00;42.10;;;;;;6034867;29;19923;-54
2023/01/26 00:42:31;;;;;;;;;;;20.00;42.20;;;;;;6034857;29;19976;-54
2023/01/26 00:45:33;;;;;;;;;;;20.50;42.30;;;;;;6035371;29;19924;-53
2023/01/26 00:48:35;;;;;;;;;;;20.30;42.20;;;;;;6034815;29;19924;-56
2023/01/26 00:51:37;;;;;;;;;;;20.00;42.20;;;;;;6034656;29;20384;-54
2023/01/26 00:54:38;;;;;;;;;;;20.00;42.00;;;;;;6034854;29;19923;-53
2023/01/26 00:57:40;;;;;;;;;;;20.00;42.10;;;;;;6034655;29;19928;-56
2023/01/26 01:00:41;;;;;;;;;;;20.00;42.30;;;;;;6034568;29;19924;-51
2023/01/26 01:03:45;;;;;;;;;;;20.00;42.20;;;;;;6034911;29;19931;-54
2023/01/26 01:06:46;;;;;;;;;;;20.00;42.20;;;;;;6034581;29;19928;-55
2023/01/26 01:09:47;;;;;;;;;;;19.90;42.30;;;;;;6035180;29;20292;-55
2023/01/26 01:12:49;;;;;;;;;;;20.30;42.40;;;;;;6034779;29;19956;-55
2023/01/26 01:15:50;;;;;;;;;;;20.60;42.50;;;;;;6034430;29;19936;-55
2023/01/26 01:18:53;;;;;;;;;;;20.00;42.30;;;;;;6034186;29;19976;-54
2023/01/26 01:21:54;;;;;;;;;;;20.20;42.50;;;;;;6018049;29;19928;-55
2023/01/26 01:24:56;;;;;;;;;;;20.20;42.30;;;;;;6034434;29;19924;-55
2023/01/26 01:27:57;;;;;;;;;;;20.30;42.50;;;;;;6034258;29;20014;-54
2023/01/26 01:30:58;;;;;;;;;;;20.50;42.70;;;;;;6034581;29;20381;-56
2023/01/26 01:34:00;;;;;;;;;;;20.90;42.90;;;;;;6034221;29;20040;-55
2023/01/26 01:37:01;;;;;;;;;;;20.30;42.60;;;;;;6033997;29;20384;-55
2023/01/26 01:40:03;;;;;;;;;;;20.50;42.80;;;;;;6033714;29;19966;-56
2023/01/26 01:43:10;;;;;;;;;;;20.20;42.50;;;;;;6034073;29;20270;-55
2023/01/26 01:46:15;;;;;;;;;;;20.00;42.30;;;;;;6033809;29;19931;-53
2023/01/26 01:49:19;;;;;;;;;;;20.30;42.40;;;;;;6033729;29;19947;-54
2023/01/26 01:52:25;;;;;;;;;;;20.10;42.40;;;;;;6034023;29;20018;-55
2023/01/26 01:55:26;;;;;;;;;;;20.00;42.50;;;;;;6033885;29;19928;-54
2023/01/26 01:58:29;;;;;;;;;;;20.20;42.60;;;;;;6033454;29;19931;-55
2023/01/26 02:01:30;;;;;;;;;;;19.90;42.50;;;;;;6033837;29;19951;-54
2023/01/26 02:04:32;;;;;;;;;;;19.80;42.50;;;;;;6033505;29;19924;-54
2023/01/26 02:07:37;;;;;;;;;;;20.20;42.70;;;;;;6046147;29;19981;-54
2023/01/26 02:10:40;;;;;;;;;;;20.50;42.80;;;;;;6064416;29;19964;-52
2023/01/26 02:13:42;;;;;;;;;;;20.20;42.50;;;;;;6047815;29;20081;-55
2023/01/26 02:16:43;;;;;;;;;;;19.90;42.40;;;;;;6064642;29;19912;-51
2023/01/26 02:19:50;;;;;;;;;;;19.90;42.50;;;;;;6062605;29;19961;-54
2023/01/26 02:22:54;;;;;;;;;;;20.70;42.80;;;;;;6058868;29;19948;-54
2023/01/26 02:26:04;;;;;;;;;;;20.00;42.50;;;;;;6055802;29;19925;-53
2023/01/26 02:29:06;;;;;;;;;;;19.90;42.40;;;;;;6059293;29;19931;-53
2023/01/26 02:32:10;;;;;;;;;;;19.90;42.50;;;;;;6052634;29;19949;-55
2023/01/26 02:35:11;;;;;;;;;;;19.90;42.60;;;;;;6058612;29;19924;-55
2023/01/26 02:38:12;;;;;;;;;;;20.30;42.90;;;;;;6056812;29;19933;-53
2023/01/26 02:42:37;;;;;;;;;;;19.90;42.70;;;;;;6059776;29;19924;-51
2023/01/26 02:44:40;;;;;;;;;;;20.20;42.80;;;;;;6046560;29;19924;-51
2023/01/26 02:47:43;;;;;;;;;;;19.90;42.50;;;;;;6059029;29;19931;-53
2023/01/26 02:50:44;;;;;;;;;;;20.20;42.90;;;;;;6058916;29;19924;-52
2023/01/26 02:53:46;;;;;;;;;;;20.90;43.20;;;;;;6058466;29;19924;-51
2023/01/26 02:56:48;;;;;;;;;;;19.90;42.80;;;;;;6063424;29;19924;-55
2023/01/26 02:59:49;;;;;;;;;;;19.90;42.70;;;;;;6064218;29;19924;-54
2023/01/26 03:02:51;;;;;;;;;;;19.90;42.80;;;;;;6064443;29;19924;-55
2023/01/26 03:05:52;;;;;;;;;;;19.90;42.70;;;;;;6049004;29;19924;-50
2023/01/26 03:08:55;;;;;;;;;;;20.00;42.90;;;;;;6065502;29;19924;-53
2023/01/26 03:11:57;;;;;;;;;;;20.50;43.30;;;;;;6065255;29;20450;-53
2023/01/26 03:27:59;;;;;;;;;;;20.20;42.90;;;;;;6064775;29;19924;-53
2023/01/26 03:31:00;;;;;;;;;;;19.80;42.90;;;;;;6064730;29;19924;-54
2023/01/26 03:34:04;;;;;;;;;;;20.30;43.20;;;;;;6064937;29;19995;-54
2023/01/26 03:37:06;;;;;;;;;;;19.80;42.90;;;;;;6064759;29;19924;-54
2023/01/26 03:56:31;;;;;;;;;;;20.40;43.20;;;;;;6048355;29;19958;-54
2023/01/26 03:59:37;;;;;;;;;;;19.90;43.00;;;;;;6062880;29;19970;-52
2023/01/26 04:09:19;;;;;;;;;;;19.90;43.10;;;;;;6062911;29;19924;-54
2023/01/26 04:12:21;;;;;;;;;;;19.90;43.20;;;;;;6062084;29;19924;-54
2023/01/26 04:22:14;;;;;;;;;;;19.80;43.10;;;;;;6056519;29;19963;-53
2023/01/26 04:25:18;;;;;;;;;;;19.90;43.30;;;;;;6060901;29;19924;-52
2023/01/26 04:28:20;;;;;;;;;;;20.80;43.60;;;;;;6061339;29;19923;-51
2023/01/26 04:31:22;;;;;;;;;;;19.80;43.20;;;;;;6063628;29;19915;-53
2023/01/26 04:34:25;;;;;;;;;;;19.90;43.40;;;;;;6062847;29;19908;-51
2023/01/26 04:37:26;;;;;;;;;;;20.00;43.30;;;;;;6062318;29;19928;-52
2023/01/26 04:40:27;;;;;;;;;;;19.80;43.30;;;;;;6062316;29;19960;-53
2023/01/26 04:43:29;;;;;;;;;;;20.30;43.50;;;;;;6062613;29;19949;-55
2023/01/26 04:46:32;;;;;;;;;;;19.80;43.40;;;;;;6062089;29;19959;-54
2023/01/26 04:49:34;;;;;;;;;;;19.70;43.20;;;;;;6062092;29;19914;-53
2023/01/26 04:52:37;;;;;;;;;;;19.90;43.40;;;;;;6062059;29;19927;-51
2023/01/26 04:55:39;;;;;;;;;;;19.90;43.50;;;;;;6061976;29;19924;-54
2023/01/26 04:58:41;;;;;;;;;;;20.70;43.90;;;;;;6060899;29;19943;-53
2023/01/26 05:01:43;;;;;;;;;;;19.80;43.40;;;;;;6061280;29;19908;-55
2023/01/26 05:04:44;;;;;;;;;;;19.80;43.30;;;;;;6045385;29;19924;-55
2023/01/26 05:07:49;;;;;;;;;;;19.90;43.50;;;;;;6061384;29;19916;-52
2023/01/26 05:10:51;;;;;;;;;;;19.90;43.50;;;;;;6061420;29;19924;-52
2023/01/26 05:18:42;;;;;;;;;;;20.30;40.60;;;;;;6061096;29;19920;-55
2023/01/26 05:21:58;;;;;;;;;;;20.40;43.80;;;;;;6046862;29;19908;-53
2023/01/26 05:25:00;;;;;;;;;;;19.90;43.50;;;;;;6060856;29;19928;-53
2023/01/26 05:28:08;;;;;;;;;;;20.00;43.60;;;;;;6059876;29;19908;-53
2023/01/26 05:31:09;;;;;;;;;;;19.90;43.50;;;;;;6060093;29;19924;-51
2023/01/26 05:34:12;;;;;;;;;;;19.90;43.70;;;;;;6059849;29;19964;-53
2023/01/26 05:37:14;;;;;;;;;;;20.00;43.60;;;;;;6059939;29;19928;-52
2023/01/26 05:40:20;;;;;;;;;;;20.60;44.10;;;;;;6059880;29;19924;-55
2023/01/26 05:43:23;;;;;;;;;;;19.90;43.50;;;;;;6060659;29;19931;-50
2023/01/26 05:46:37;;;;;;;;;;;20.40;43.90;;;;;;6061157;29;19991;-52
2023/01/26 05:49:41;;;;;;;;;;;19.90;43.20;;;;;;6061346;29;19931;-53
2023/01/26 05:52:46;;;;;;;;;;;20.70;44.00;;;;;;6061493;29;19924;-55
2023/01/26 05:55:48;;;;;;;;;;;19.90;43.70;;;;;;6061027;29;19931;-54
2023/01/26 05:58:52;;;;;;;;;;;19.90;43.80;;;;;;6060919;29;19924;-53
2023/01/26 06:01:55;;;;;;;;;;;20.00;43.70;;;;;;6061054;29;19908;-54
2023/01/26 06:04:57;;;;;;;;;;;20.90;44.20;;;;;;6045340;29;19924;-55
2023/01/26 06:07:58;;;;;;;;;;;19.90;43.80;;;;;;6061320;29;19991;-54
2023/01/26 06:11:04;;;;;;;;;;;19.90;43.90;;;;;;6059592;29;19924;-52
2023/01/26 06:14:19;;;;;;;;;;;20.00;43.80;;;;;;6059479;29;19924;-54
2023/01/26 06:17:21;;;;;;;;;;;20.90;44.50;;;;;;6060652;29;19915;-53
2023/01/26 06:20:29;;;;;;;;;;;19.80;43.90;;;;;;6060991;29;19908;-55
2023/01/26 06:23:33;;;;;;;;;;;19.90;43.90;;;;;;6061332;29;19924;-55
2023/01/26 06:26:36;;;;;;;;;;;20.10;43.90;;;;;;6062745;29;19927;-55
2023/01/26 06:29:38;;;;;;;;;;;20.40;44.20;;;;;;6064719;29;19908;-54
2023/01/26 06:32:39;;;;;;;;;;;20.00;44.20;;;;;;6062063;29;19931;-54
2023/01/26 06:35:42;;;;;;;;;;;20.00;44.10;;;;;;6061551;29;20300;-56
2023/01/26 06:38:47;;;;;;;;;;;20.10;44.10;;;;;;6058929;29;19924;-51
2023/01/26 06:41:48;;;;;;;;;;;20.50;44.00;;;;;;6061121;29;19934;-53
2023/01/26 06:44:50;;;;;;;;;;;20.40;44.10;;;;;;6060445;29;19924;-54
2023/01/26 06:47:52;;;;;;;;;;;20.50;44.40;;;;;;6059926;29;19956;-52
2023/01/26 06:50:55;;;;;;;;;;;19.80;44.00;;;;;;6058481;29;19962;-52
2023/01/26 06:53:57;;;;;;;;;;;19.90;44.00;;;;;;6042256;29;19931;-53
2023/01/26 06:57:11;;;;;;;;;;;20.30;44.20;;;;;;6054564;29;19931;-54
2023/01/26 07:00:22;;;;;;;;;;;20.60;44.60;;;;;;6053197;29;19960;-54
2023/01/26 07:03:37;;;;;;;;;;;20.30;44.20;;;;;;6059143;29;19924;-54
2023/01/26 07:06:39;;;;;;;;;;;20.20;44.50;;;;;;6060552;29;19927;-55
2023/01/26 07:09:41;;;;;;;;;;;20.30;44.40;;;;;;6061768;29;19931;-53
2023/01/26 07:12:43;;;;;;;;;;;20.60;44.60;;;;;;6060469;29;19978;-55
2023/01/26 07:15:44;;;;;;;;;;;19.80;44.00;;;;;;6059321;29;19924;-56
2023/01/26 07:18:46;;;;;;;;;;;20.60;44.60;;;;;;6059321;29;19924;-53
2023/01/26 07:21:48;;;;;;;;;;;19.90;44.00;;;;;;6062735;29;19984;-53
2023/01/26 07:24:49;;;;;;;;;;;20.90;44.70;;;;;;6063560;29;19923;-54
2023/01/26 07:27:54;;;;;;;;;;;20.20;44.90;;;;;;6054465;29;19931;-54
2023/01/26 07:30:56;;;;;;;;;;;20.50;44.30;;;;;;6043267;29;20344;-51
2023/01/26 07:33:58;;;;;;;;;;;20.00;44.00;;;;;;6048045;29;19924;-54
2023/01/26 07:37:00;;;;;;;;;;;20.70;44.50;;;;;;6048861;29;20358;-50
2023/01/26 07:40:02;;;;;;;;;;;20.30;44.10;;;;;;6053795;29;19949;-53
2023/01/26 07:43:03;;;;;;;;;;;20.50;44.10;;;;;;6051306;29;19924;-52
2023/01/26 07:46:18;;;;;;;;;;;20.00;43.90;;;;;;6052960;29;19924;-51
2023/01/26 07:49:19;;;;;;;;;;;20.70;44.40;;;;;;6054692;29;19946;-53
2023/01/26 07:52:21;;;;;;;;;;;20.10;44.70;;;;;;6053744;29;19932;-47
2023/01/26 07:55:25;;;;;;;;;;;20.60;44.30;;;;;;6047442;29;20309;-55
2023/01/26 07:58:26;;;;;;;;;;;20.50;43.70;;;;;;6044343;29;19924;-54
2023/01/26 08:01:27;;;;;;;;;;;20.60;44.30;;;;;;6035440;29;19928;-54
2023/01/26 08:04:29;;;;;;;;;;;20.50;44.20;;;;;;6035994;29;19924;-54
2023/01/26 08:07:31;;;;;;;;;;;19.90;43.90;;;;;;6035915;29;19936;-54
2023/01/26 08:10:32;;;;;;;;;;;20.40;44.20;;;;;;6038113;29;19943;-53
2023/01/26 08:13:34;;;;;;;;;;;21.00;44.50;;;;;;6037947;29;19963;-52
2023/01/26 08:16:39;;;;;;;;;;;20.30;43.80;;;;;;6037425;29;19924;-52
2023/01/26 08:19:40;;;;;;;;;;;21.00;44.50;;;;;;6035196;29;19955;-51
2023/01/26 08:22:43;;;;;;;;;;;20.50;44.10;;;;;;6035118;29;19939;-54
2023/01/26 08:25:45;;;;;;;;;;;20.80;44.20;;;;;;6038215;29;20476;-53
2023/01/26 08:28:46;;;;;;;;;;;20.20;43.80;;;;;;6035598;29;19930;-51
2023/01/26 08:31:47;;;;;;;;;;;20.70;44.10;;;;;;6035148;29;19924;-49
2023/01/26 08:34:49;;;;;;;;;;;20.30;43.80;;;;;;6034557;29;20342;-54
2023/01/26 08:37:51;;;;;;;;;;;21.10;44.30;;;;;;6035078;29;19932;-54
2023/01/26 08:40:53;;;;;;;;;;;20.40;44.00;;;;;;6035941;29;19923;-53
2023/01/26 08:43:58;;;;;;;;;;;21.30;44.40;;;;;;6040465;29;19931;-53
2023/01/26 08:46:59;;;;;;;;;;;20.70;43.90;;;;;;6038423;29;19924;-53
2023/01/26 08:50:00;;;;;;;;;;;20.80;44.20;;;;;;6036198;29;19923;-52
2023/01/26 08:53:03;;;;;;;;;;;21.00;44.10;;;;;;6035564;29;19967;-53
2023/01/26 08:56:05;;;;;;;;;;;20.70;44.10;;;;;;6035047;29;19928;-54
2023/01/26 08:59:06;;;;;;;;;;;21.40;44.50;;;;;;6020469;29;19931;-54
2023/01/26 09:02:09;;;;;;;;;;;20.50;43.90;;;;;;6035566;29;19924;-55
2023/01/26 09:05:10;;;;;;;;;;;20.60;43.50;;;;;;6018379;29;19924;-55
2023/01/26 09:08:12;;;;;;;;;;;21.00;44.00;;;;;;6034541;29;19931;-55
2023/01/26 09:11:21;;;;;;;;;;;21.30;44.60;;;;;;6456327;27;20300;-50
2023/01/26 09:14:23;;;;;;;;;;;21.20;44.00;;;;;;6446141;27;19971;-56
2023/01/26 09:17:24;;;;;;;;;;;21.30;44.30;;;;;;6446095;27;19922;-55
2023/01/26 09:20:26;;;;;;;;;;;20.60;43.80;;;;;;6446124;27;20385;-55
2023/01/26 09:23:27;;;;;;;;;;;21.20;44.20;;;;;;6446359;27;19930;-51
2023/01/26 09:26:29;;;;;;;;;;;20.60;43.90;;;;;;6445538;27;19933;-53
2023/01/26 09:29:30;;;;;;;;;;;21.00;44.30;;;;;;6445641;27;19922;-54
2023/01/26 09:32:32;;;;;;;;;;;20.90;44.10;;;;;;6445631;27;19971;-53
2023/01/26 09:35:33;;;;;;;;;;;20.90;44.00;;;;;;6445270;27;19922;-51
2023/01/26 09:38:35;;;;;;;;;;;20.70;43.80;;;;;;6446189;27;20362;-54
2023/01/26 09:41:48;;;;;;;;;;;21.30;44.40;;;;;;6445447;27;19934;-55
2023/01/26 09:44:54;;;;;;;;;;;21.00;44.00;;;;;;6445888;27;19926;-54
2023/01/26 09:48:01;;;;;;;;;;;21.40;44.30;;;;;;6423266;27;20281;-54
2023/01/26 09:51:05;;;;;;;;;;;21.10;44.10;;;;;;6445104;27;19926;-56
2023/01/26 09:54:12;;;;;;;;;;;20.60;43.70;;;;;;6445227;27;20271;-54
2023/01/26 09:57:15;;;;;;;;;;;21.10;44.10;;;;;;6426814;27;19927;-55
2023/01/26 10:00:19;;;;;;;;;;;21.00;44.20;;;;;;6426251;27;19974;-52
2023/01/26 10:03:27;;;;;;;;;;;20.90;43.90;;;;;;6445652;27;19923;-54
2023/01/26 10:06:30;;;;;;;;;;;21.40;44.30;;;;;;6445173;27;20407;-51
2023/01/26 10:09:40;;;;;;;;;;;20.70;44.00;;;;;;6427783;27;19923;-54
2023/01/26 10:12:42;;;;;;;;;;;20.90;44.10;;;;;;6444720;27;19923;-53
2023/01/26 10:15:46;;;;;;;;;;;20.90;44.40;;;;;;6445534;27;19937;-53
2023/01/26 10:18:52;;;;;;;;;;;21.60;44.50;;;;;;6444873;27;20013;-54
2023/01/26 10:21:54;;;;;;;;;;;20.80;44.10;;;;;;6432189;27;19923;-55
2023/01/26 10:24:56;;;;;;;;;;;20.70;44.20;;;;;;6427861;27;19923;-56
2023/01/26 10:27:58;;;;;;;;;;;20.60;44.10;;;;;;6411736;27;20364;-57
2023/01/26 10:31:01;;;;;;;;;;;21.20;44.00;;;;;;6431707;27;19929;-56
2023/01/26 10:34:09;;;;;;;;;;;20.90;44.10;;;;;;6433198;27;19926;-51
2023/01/26 10:37:17;;;;;;;;;;;21.70;44.50;;;;;;6419112;22;19935;-57
2023/01/26 10:40:19;;;;;;;;;;;21.00;44.20;;;;;;6350061;28;20337;-54
2023/01/26 10:43:21;;;;;;;;;;;21.80;44.60;;;;;;6331854;28;20067;-55
2023/01/26 10:46:24;;;;;;;;;;;21.00;44.10;;;;;;6350066;28;19924;-56
2023/01/26 10:49:27;;;;;;;;;;;21.30;43.60;;;;;;6349894;28;20375;-55
2023/01/26 10:52:28;;;;;;;;;;;21.20;44.20;;;;;;6352189;28;19955;-56
2023/01/26 10:55:30;;;;;;;;;;;21.30;44.30;;;;;;6353041;28;20364;-58
2023/01/26 10:58:46;;;;;;;;;;;20.70;43.90;;;;;;6333555;28;19928;-54
2023/01/26 11:01:51;;;;;;;;;;;21.50;44.20;;;;;;6334155;28;19923;-58
2023/01/26 11:05:01;;;;;;;;;;;20.80;43.80;;;;;;6350277;28;19924;-59
2023/01/26 11:08:05;;;;;;;;;;;21.30;44.10;;;;;;6350112;28;19931;-55
2023/01/26 11:11:21;;;;;;;;;;;21.00;44.00;;;;;;6349795;28;20387;-59
2023/01/26 11:14:22;;;;;;;;;;;21.40;43.90;;;;;;6357749;28;19924;-56
2023/01/26 11:17:26;;;;;;;;;;;20.80;43.50;;;;;;6352047;28;20007;-58
2023/01/26 11:20:37;;;;;;;;;;;21.90;44.40;;;;;;6354039;28;19924;-55
2023/01/26 11:23:47;;;;;;;;;;;20.90;43.70;;;;;;6353323;28;20281;-53
2023/01/26 11:27:04;;;;;;;;;;;21.10;43.70;;;;;;6350788;28;20010;-58
2023/01/26 11:30:15;;;;;;;;;;;20.90;44.50;;;;;;6355257;28;19928;-54
2023/01/26 11:33:24;;;;;;;;;;;21.50;43.90;;;;;;6518478;22;19965;-53
2023/01/26 11:36:29;;;;;;;;;;;20.80;43.90;;;;;;6377384;28;19930;-50
2023/01/26 11:39:33;;;;;;;;;;;21.00;43.70;;;;;;6376004;28;20252;-50
2023/01/26 11:42:40;;;;;;;;;;;21.40;44.20;;;;;;6375852;28;20396;-48
2023/01/26 11:45:52;;;;;;;;;;;21.40;43.60;;;;;;6378672;28;19928;-51
2023/01/26 11:49:02;;;;;;;;;;;21.40;43.90;;;;;;6377993;28;20018;-52
2023/01/26 11:52:08;;;;;;;;;;;21.50;41.40;;;;;;6357771;28;19923;-48
2023/01/26 11:55:15;;;;;;;;;;;20.90;43.90;;;;;;6357123;28;19924;-52
2023/01/26 11:58:24;;;;;;;;;;;21.50;43.20;;;;;;6375259;28;19955;-51
2023/01/26 12:01:28;;;;;;;;;;;21.10;44.00;;;;;;6376213;28;19923;-54
2023/01/26 12:04:32;;;;;;;;;;;21.40;44.30;;;;;;6376343;28;19962;-51
2023/01/26 12:07:53;;;;;;;;;;;21.00;44.10;;;;;;6377235;28;19923;-51
2023/01/26 12:11:20;;;;;;;;;;;21.40;44.30;;;;;;6376880;28;20029;-53
2023/01/26 12:14:23;;;;;;;;;;;21.10;44.20;;;;;;6362118;28;19924;-54
2023/01/26 12:17:28;;;;;;;;;;;21.50;44.30;;;;;;6377361;28;20018;-52
2023/01/26 12:20:35;;;;;;;;;;;20.90;44.20;;;;;;6376020;28;19938;-54
2023/01/26 12:23:43;;;;;;;;;;;21.70;44.60;;;;;;6376819;28;19972;-51
2023/01/26 12:26:46;;;;;;;;;;;21.20;44.40;;;;;;6377324;28;19924;-52
2023/01/26 12:29:51;;;;;;;;;;;21.70;44.60;;;;;;6376337;28;19923;-53
2023/01/26 12:32:52;;;;;;;;;;;21.20;44.30;;;;;;6376074;28;19930;-51
2023/01/26 12:36:02;;;;;;;;;;;21.60;44.70;;;;;;6384296;28;19911;-55
2023/01/26 12:39:07;;;;;;;;;;;21.00;44.20;;;;;;6384855;28;19924;-55
2023/01/26 12:42:15;;;;;;;;;;;21.40;44.30;;;;;;6363030;28;19924;-54
2023/01/26 12:45:19;;;;;;;;;;;21.30;44.50;;;;;;6375380;27;19930;-54
2023/01/26 12:48:22;;;;;;;;;;;21.40;44.50;;;;;;6377385;28;20383;-54
2023/01/26 12:51:26;;;;;;;;;;;21.50;44.40;;;;;;6353255;28;20306;-55
2023/01/26 12:54:32;;;;;;;;;;;21.80;44.70;;;;;;6351937;28;19961;-50
2023/01/26 12:57:38;;;;;;;;;;;20.90;44.10;;;;;;6351475;28;19924;-51
2023/01/26 13:00:39;;;;;;;;;;;21.60;44.50;;;;;;6347918;28;20300;-57
2023/01/26 13:03:42;;;;;;;;;;;21.10;44.20;;;;;;6347124;28;19927;-54
2023/01/26 13:06:44;;;;;;;;;;;21.70;44.30;;;;;;6349477;28;19939;-53
2023/01/26 13:10:06;;;;;;;;;;;21.20;44.20;;;;;;6351374;28;19927;-55
2023/01/26 13:13:22;;;;;;;;;;;21.90;44.50;;;;;;6343664;28;19923;-53
2023/01/26 13:16:32;;;;;;;;;;;21.10;44.00;;;;;;6335327;28;19931;-56
2023/01/26 13:19:35;;;;;;;;;;;21.80;44.40;;;;;;6358921;28;20499;-55
2023/01/26 13:22:38;;;;;;;;;;;21.40;44.20;;;;;;6382024;27;19934;-54
2023/01/26 13:25:39;;;;;;;;;;;21.70;44.40;;;;;;6385812;28;20383;-53
2023/01/26 13:28:41;;;;;;;;;;;21.00;43.70;;;;;;6388432;28;19927;-55
2023/01/26 13:31:42;;;;;;;;;;;21.60;44.40;;;;;;6395303;28;19923;-56
2023/01/26 13:34:45;;;;;;;;;;;21.20;44.10;;;;;;6395409;28;19907;-54
2023/01/26 13:37:49;;;;;;;;;;;21.70;44.30;;;;;;6458364;22;19931;-54
2023/01/26 13:40:50;;;;;;;;;;;21.20;44.20;;;;;;6325758;28;19924;-56
2023/01/26 13:43:54;;;;;;;;;;;21.40;44.30;;;;;;6322853;28;19936;-55
2023/01/26 13:46:58;;;;;;;;;;;21.00;44.00;;;;;;6325076;28;20000;-55
2023/01/26 13:50:00;;;;;;;;;;;21.40;44.20;;;;;;6325420;28;19947;-56
2023/01/26 13:53:22;;;;;;;;;;;21.40;44.30;;;;;;6325224;28;19924;-54
2023/01/26 13:56:24;;;;;;;;;;;21.60;44.50;;;;;;6324337;28;19928;-56
2023/01/26 13:59:26;;;;;;;;;;;21.20;44.10;;;;;;6328142;28;20388;-50
2023/01/26 14:02:29;;;;;;;;;;;21.50;44.30;;;;;;6329555;28;19931;-55
2023/01/26 14:05:31;;;;;;;;;;;21.00;44.00;;;;;;6328169;28;19924;-55
2023/01/26 14:08:34;;;;;;;;;;;21.50;44.40;;;;;;6333569;28;19924;-56
2023/01/26 14:11:35;;;;;;;;;;;20.90;44.10;;;;;;6327681;28;19989;-56
2023/01/26 14:14:37;;;;;;;;;;;21.50;44.20;;;;;;6325845;28;19927;-54
2023/01/26 14:17:46;;;;;;;;;;;21.30;44.30;;;;;;6327294;28;20284;-54
2023/01/26 14:20:47;;;;;;;;;;;21.70;44.60;;;;;;6327589;28;20268;-56
2023/01/26 14:23:54;;;;;;;;;;;21.50;44.50;;;;;;6326948;28;19974;-51
2023/01/26 14:26:55;;;;;;;;;;;21.80;44.60;;;;;;6326046;28;20022;-56
2023/01/26 14:29:57;;;;;;;;;;;21.10;44.10;;;;;;6325247;28;19970;-57
2023/01/26 14:33:03;;;;;;;;;;;21.40;44.00;;;;;;6329054;28;19924;-52
2023/01/26 14:36:04;;;;;;;;;;;21.30;44.10;;;;;;6331801;28;19924;-53
2023/01/26 14:39:14;;;;;;;;;;;21.60;44.20;;;;;;6334014;28;19928;-54
2023/01/26 14:42:17;;;;;;;;;;;21.00;44.00;;;;;;6337482;28;19950;-54
2023/01/26 14:48:45;;;;;;;;;;;21.30;41.70;;;;;;6623136;22;19908;-58
2023/01/26 14:51:49;;;;;;;;;;;21.30;44.20;;;;;;6339259;28;19931;-61
2023/01/26 14:54:53;;;;;;;;;;;21.70;44.30;;;;;;6382679;22;19928;-52
2023/01/26 15:01:25;;;;;;;;;;;21.50;41.00;;;;;;6601718;22;19913;-56
2023/01/26 15:07:53;;;;;;;;;;;21.20;41.50;;;;;;6462107;23;20385;-60
2023/01/26 15:12:14;;;;;;;;;;;21.40;44.00;;;;;;6218560;28;20397;-60
2023/01/26 15:14:30;;;;;;;;;;;21.60;44.30;;;;;;6204990;28;19926;-60
2023/01/26 15:17:36;;;;;;;;;;;21.00;43.80;;;;;;6220860;28;19925;-56
2023/01/26 15:31:19;;;;;;;;;;;21.20;41.40;;;;;;6785222;23;19958;-54
2023/01/26 15:48:19;;;;;;;;;;;21.50;41.30;;;;;;7285438;23;20837;-58
2023/01/26 15:54:36;;;;;;;;;;;21.30;41.50;;;;;;6180496;28;19926;-59
2023/01/26 15:57:37;;;;;;;;;;;21.30;44.00;;;;;;6178639;28;19963;-59
2023/01/26 16:00:38;;;;;;;;;;;21.50;44.00;;;;;;6177147;28;19926;-60
2023/01/26 16:03:40;;;;;;;;;;;21.10;43.80;;;;;;6177289;28;19917;-58
2023/01/26 16:06:41;;;;;;;;;;;21.60;44.20;;;;;;6180043;28;19970;-58
2023/01/26 16:09:43;;;;;;;;;;;21.40;44.10;;;;;;6181522;28;19933;-59
2023/01/26 16:12:44;;;;;;;;;;;21.50;44.00;;;;;;6179650;28;19930;-59
2023/01/26 16:15:47;;;;;;;;;;;21.10;43.70;;;;;;6178165;28;19926;-59
2023/01/26 16:18:49;;;;;;;;;;;21.80;44.30;;;;;;6169577;28;19950;-59
2023/01/26 16:21:50;;;;;;;;;;;21.50;44.20;;;;;;6273888;23;19932;-57
2023/01/26 16:24:51;;;;;;;;;;;21.50;44.30;;;;;;7275330;23;19929;-58
2023/01/26 16:27:53;;;;;;;;;;;21.20;44.20;;;;;;6205955;28;19989;-56
2023/01/26 16:30:54;;;;;;;;;;;21.60;44.40;;;;;;6206438;28;19941;-57
2023/01/26 16:33:56;;;;;;;;;;;21.10;44.10;;;;;;6206456;28;19910;-59
2023/01/26 16:36:57;;;;;;;;;;;21.60;43.80;;;;;;6205651;28;19921;-58
2023/01/26 16:47:43;;;;;;;;;;;21.60;41.20;;;;;;6152727;29;19978;-57
2023/01/26 16:50:45;;;;;;;;;;;21.30;44.10;;;;;;6153646;29;19910;-56
2023/01/26 16:53:46;;;;;;;;;;;21.20;44.00;;;;;;6158509;29;19910;-56
2023/01/26 16:56:48;;;;;;;;;;;21.80;44.40;;;;;;6157975;29;19923;-54
2023/01/26 16:59:49;;;;;;;;;;;21.00;42.30;;;;;;6156800;29;19959;-54
2023/01/26 17:02:51;;;;;;;;;;;21.70;44.30;;;;;;6157051;29;19915;-56
2023/01/26 17:05:54;;;;;;;;;;;21.50;44.10;;;;;;6156912;29;19927;-53
2023/01/26 17:08:56;;;;;;;;;;;21.50;42.60;;;;;;6156768;28;19914;-56
2023/01/26 17:11:58;;;;;;;;;;;21.20;43.90;;;;;;6157759;28;19958;-57
2023/01/26 17:14:59;;;;;;;;;;;21.30;44.20;;;;;;6156300;29;19934;-55
2023/01/26 17:18:00;;;;;;;;;;;21.20;44.10;;;;;;6157734;28;19915;-54
2023/01/26 17:21:02;;;;;;;;;;;21.80;44.50;;;;;;6154186;29;19931;-56
2023/01/26 17:24:05;;;;;;;;;;;20.90;44.00;;;;;;6156130;29;19998;-57
2023/01/26 17:41:04;;;;;;;;;;;21.10;41.50;;;;;;6176219;23;19926;-58
2023/01/26 17:47:23;;;;;;;;;;;21.40;41.50;;;;;;6604933;23;19918;-59
2023/01/26 17:50:24;;;;;;;;;;;21.20;42.70;;;;;;7035391;23;20769;-57
2023/01/26 17:53:26;;;;;;;;;;;21.50;44.20;;;;;;6208073;28;19914;-57
2023/01/26 17:59:52;;;;;;;;;;;21.20;41.60;;;;;;7191314;23;19930;-58
